sensor_id;sensor_type;location;lat;lon;timestamp;P1;durP1;ratioP1;P2;durP2;ratioP2
21822;SDS011;11074;48.596;9.238;2022-12-29T00:01:35;6.55;;;3.70;;
21822;SDS011;11074;48.596;9.238;2022-12-29T00:04:02;4.60;;;3.53;;
21822;SDS011;11074;48.596;9.238;2022-12-29T00:06:29;5.90;;;3.67;;
21822;SDS011;11074;48.596;9.238;2022-12-29T00:08:56;5.30;;;3.30;;
21822;SDS011;11074;48.596;9.238;2022-12-29T00:11:23;5.95;;;3.80;;
21822;SDS011;11074;48.596;9.238;2022-12-29T00:13:51;5.72;;;3.83;;
21822;SDS011;11074;48.596;9.238;2022-12-29T00:16:37;4.60;;;3.42;;
21822;SDS011;11074;48.596;9.238;2022-12-29T00:19:06;6.47;;;3.90;;
21822;SDS011;11074;48.596;9.238;2022-12-29T00:21:52;9.98;;;4.18;;
21822;SDS011;11074;48.596;9.238;2022-12-29T00:24:36;8.00;;;4.05;;
21822;SDS011;11074;48.596;9.238;2022-12-29T00:27:19;6.00;;;3.83;;
21822;SDS011;11074;48.596;9.238;2022-12-29T00:30:15;9.20;;;4.18;;
21822;SDS011;11074;48.596;9.238;2022-12-29T00:33:12;6.30;;;4.10;;
21822;SDS011;11074;48.596;9.238;2022-12-29T00:36:02;7.57;;;4.38;;
21822;SDS011;11074;48.596;9.238;2022-12-29T00:38:37;6.68;;;3.90;;
21822;SDS011;11074;48.596;9.238;2022-12-29T00:41:26;9.18;;;4.40;;
21822;SDS011;11074;48.596;9.238;2022-12-29T00:44:11;8.65;;;4.28;;
21822;SDS011;11074;48.596;9.238;2022-12-29T00:46:38;9.88;;;5.13;;
21822;SDS011;11074;48.596;9.238;2022-12-29T00:49:07;7.72;;;4.40;;
21822;SDS011;11074;48.596;9.238;2022-12-29T00:51:55;8.30;;;4.30;;
21822;SDS011;11074;48.596;9.238;2022-12-29T00:54:31;6.88;;;4.55;;
21822;SDS011;11074;48.596;9.238;2022-12-29T00:56:59;7.53;;;4.50;;
21822;SDS011;11074;48.596;9.238;2022-12-29T00:59:26;8.55;;;4.78;;
21822;SDS011;11074;48.596;9.238;2022-12-29T01:01:52;9.93;;;5.35;;
21822;SDS011;11074;48.596;9.238;2022-12-29T01:04:19;9.40;;;5.68;;
21822;SDS011;11074;48.596;9.238;2022-12-29T01:06:47;8.75;;;5.05;;
21822;SDS011;11074;48.596;9.238;2022-12-29T01:09:13;9.68;;;5.78;;
21822;SDS011;11074;48.596;9.238;2022-12-29T01:11:58;8.55;;;5.30;;
21822;SDS011;11074;48.596;9.238;2022-12-29T01:14:24;9.07;;;5.10;;
21822;SDS011;11074;48.596;9.238;2022-12-29T01:16:50;7.20;;;4.70;;
21822;SDS011;11074;48.596;9.238;2022-12-29T01:19:17;7.93;;;4.55;;
21822;SDS011;11074;48.596;9.238;2022-12-29T01:21:44;9.18;;;5.00;;
21822;SDS011;11074;48.596;9.238;2022-12-29T01:24:11;9.75;;;5.10;;
21822;SDS011;11074;48.596;9.238;2022-12-29T01:26:36;14.77;;;6.95;;
21822;SDS011;11074;48.596;9.238;2022-12-29T01:29:02;8.95;;;6.25;;
21822;SDS011;11074;48.596;9.238;2022-12-29T01:31:28;12.18;;;7.35;;
21822;SDS011;11074;48.596;9.238;2022-12-29T01:33:53;11.57;;;6.93;;
21822;SDS011;11074;48.596;9.238;2022-12-29T01:36:19;13.55;;;7.40;;
21822;SDS011;11074;48.596;9.238;2022-12-29T01:38:45;12.52;;;7.40;;
21822;SDS011;11074;48.596;9.238;2022-12-29T01:41:12;10.77;;;6.75;;
21822;SDS011;11074;48.596;9.238;2022-12-29T01:46:25;7.47;;;4.57;;
21822;SDS011;11074;48.596;9.238;2022-12-29T01:51:44;9.82;;;5.63;;
21822;SDS011;11074;48.596;9.238;2022-12-29T01:54:40;9.75;;;4.30;;
21822;SDS011;11074;48.596;9.238;2022-12-29T01:57:16;9.63;;;3.85;;
21822;SDS011;11074;48.596;9.238;2022-12-29T02:00:00;9.20;;;2.88;;
21822;SDS011;11074;48.596;9.238;2022-12-29T02:02:36;5.00;;;2.80;;
21822;SDS011;11074;48.596;9.238;2022-12-29T02:05:04;6.60;;;3.15;;
21822;SDS011;11074;48.596;9.238;2022-12-29T02:07:38;6.05;;;2.72;;
21822;SDS011;11074;48.596;9.238;2022-12-29T02:10:06;5.00;;;2.53;;
21822;SDS011;11074;48.596;9.238;2022-12-29T02:12:32;5.10;;;2.97;;
21822;SDS011;11074;48.596;9.238;2022-12-29T02:14:59;4.28;;;2.83;;
21822;SDS011;11074;48.596;9.238;2022-12-29T02:29:49;6.28;;;3.15;;
21822;SDS011;11074;48.596;9.238;2022-12-29T02:35:14;5.22;;;3.10;;
21822;SDS011;11074;48.596;9.238;2022-12-29T02:41:18;7.93;;;4.00;;
21822;SDS011;11074;48.596;9.238;2022-12-29T02:44:40;6.53;;;3.90;;
21822;SDS011;11074;48.596;9.238;2022-12-29T02:47:55;6.10;;;3.63;;
21822;SDS011;11074;48.596;9.238;2022-12-29T02:50:44;5.93;;;3.90;;
21822;SDS011;11074;48.596;9.238;2022-12-29T02:53:23;7.82;;;4.07;;
21822;SDS011;11074;48.596;9.238;2022-12-29T02:56:10;6.10;;;3.72;;
21822;SDS011;11074;48.596;9.238;2022-12-29T02:58:36;5.30;;;3.85;;
21822;SDS011;11074;48.596;9.238;2022-12-29T03:03:47;5.70;;;3.40;;
21822;SDS011;11074;48.596;9.238;2022-12-29T03:06:56;5.75;;;3.22;;
21822;SDS011;11074;48.596;9.238;2022-12-29T03:12:36;5.20;;;1.90;;
21822;SDS011;11074;48.596;9.238;2022-12-29T03:15:42;4.07;;;1.60;;
21822;SDS011;11074;48.596;9.238;2022-12-29T03:21:40;2.95;;;1.33;;
21822;SDS011;11074;48.596;9.238;2022-12-29T03:24:36;2.08;;;1.30;;
21822;SDS011;11074;48.596;9.238;2022-12-29T03:27:13;2.92;;;1.10;;
21822;SDS011;11074;48.596;9.238;2022-12-29T03:29:46;1.90;;;1.17;;
21822;SDS011;11074;48.596;9.238;2022-12-29T03:32:23;4.70;;;1.35;;
21822;SDS011;11074;48.596;9.238;2022-12-29T03:35:16;1.92;;;1.10;;
21822;SDS011;11074;48.596;9.238;2022-12-29T03:37:53;1.70;;;0.90;;
21822;SDS011;11074;48.596;9.238;2022-12-29T03:40:40;3.08;;;1.02;;
21822;SDS011;11074;48.596;9.238;2022-12-29T03:43:13;3.07;;;1.20;;
21822;SDS011;11074;48.596;9.238;2022-12-29T03:45:40;3.72;;;0.90;;
21822;SDS011;11074;48.596;9.238;2022-12-29T03:48:06;1.08;;;0.95;;
21822;SDS011;11074;48.596;9.238;2022-12-29T03:50:32;3.78;;;0.90;;
21822;SDS011;11074;48.596;9.238;2022-12-29T03:52:57;2.15;;;1.00;;
21822;SDS011;11074;48.596;9.238;2022-12-29T03:55:23;3.90;;;1.00;;
21822;SDS011;11074;48.596;9.238;2022-12-29T03:57:48;2.25;;;1.10;;
21822;SDS011;11074;48.596;9.238;2022-12-29T04:00:14;2.47;;;1.00;;
21822;SDS011;11074;48.596;9.238;2022-12-29T04:02:40;3.75;;;1.10;;
21822;SDS011;11074;48.596;9.238;2022-12-29T04:05:06;5.57;;;1.35;;
21822;SDS011;11074;48.596;9.238;2022-12-29T04:07:32;2.15;;;1.02;;
21822;SDS011;11074;48.596;9.238;2022-12-29T04:09:58;2.50;;;1.02;;
21822;SDS011;11074;48.596;9.238;2022-12-29T04:12:24;4.97;;;1.08;;
21822;SDS011;11074;48.596;9.238;2022-12-29T04:14:49;2.08;;;1.00;;
21822;SDS011;11074;48.596;9.238;2022-12-29T04:17:15;3.35;;;0.90;;
21822;SDS011;11074;48.596;9.238;2022-12-29T04:19:40;1.33;;;0.80;;
21822;SDS011;11074;48.596;9.238;2022-12-29T04:22:06;3.33;;;1.10;;
21822;SDS011;11074;48.596;9.238;2022-12-29T04:24:32;2.88;;;1.08;;
21822;SDS011;11074;48.596;9.238;2022-12-29T04:26:58;3.28;;;0.90;;
21822;SDS011;11074;48.596;9.238;2022-12-29T04:29:23;4.07;;;1.10;;
21822;SDS011;11074;48.596;9.238;2022-12-29T04:31:49;2.05;;;0.80;;
21822;SDS011;11074;48.596;9.238;2022-12-29T04:34:14;2.15;;;0.90;;
21822;SDS011;11074;48.596;9.238;2022-12-29T04:36:40;2.47;;;1.00;;
21822;SDS011;11074;48.596;9.238;2022-12-29T04:39:06;2.88;;;1.00;;
21822;SDS011;11074;48.596;9.238;2022-12-29T04:41:32;3.13;;;1.00;;
21822;SDS011;11074;48.596;9.238;2022-12-29T04:43:58;2.85;;;0.90;;
21822;SDS011;11074;48.596;9.238;2022-12-29T04:46:24;2.97;;;0.90;;
21822;SDS011;11074;48.596;9.238;2022-12-29T04:48:50;3.40;;;1.17;;
21822;SDS011;11074;48.596;9.238;2022-12-29T04:51:15;5.25;;;1.23;;
21822;SDS011;11074;48.596;9.238;2022-12-29T04:53:41;3.70;;;1.30;;
21822;SDS011;11074;48.596;9.238;2022-12-29T04:56:07;3.65;;;1.30;;
21822;SDS011;11074;48.596;9.238;2022-12-29T04:58:34;3.10;;;1.20;;
21822;SDS011;11074;48.596;9.238;2022-12-29T05:01:00;3.63;;;1.00;;
21822;SDS011;11074;48.596;9.238;2022-12-29T05:03:26;2.47;;;1.40;;
21822;SDS011;11074;48.596;9.238;2022-12-29T05:05:55;3.25;;;1.30;;
21822;SDS011;11074;48.596;9.238;2022-12-29T05:08:22;3.17;;;1.30;;
21822;SDS011;11074;48.596;9.238;2022-12-29T05:10:50;4.80;;;1.30;;
21822;SDS011;11074;48.596;9.238;2022-12-29T05:13:16;4.80;;;1.10;;
21822;SDS011;11074;48.596;9.238;2022-12-29T05:15:48;2.72;;;1.02;;
21822;SDS011;11074;48.596;9.238;2022-12-29T05:20:43;3.72;;;1.30;;
21822;SDS011;11074;48.596;9.238;2022-12-29T05:23:09;3.00;;;1.02;;
21822;SDS011;11074;48.596;9.238;2022-12-29T05:25:36;2.20;;;1.05;;
21822;SDS011;11074;48.596;9.238;2022-12-29T05:28:01;3.38;;;1.27;;
21822;SDS011;11074;48.596;9.238;2022-12-29T05:30:27;2.50;;;1.10;;
21822;SDS011;11074;48.596;9.238;2022-12-29T05:32:53;2.92;;;1.10;;
21822;SDS011;11074;48.596;9.238;2022-12-29T05:35:19;4.63;;;1.05;;
21822;SDS011;11074;48.596;9.238;2022-12-29T05:37:44;4.40;;;1.17;;
21822;SDS011;11074;48.596;9.238;2022-12-29T05:40:10;5.47;;;1.10;;
21822;SDS011;11074;48.596;9.238;2022-12-29T05:42:36;3.30;;;1.00;;
21822;SDS011;11074;48.596;9.238;2022-12-29T05:45:02;1.48;;;0.90;;
21822;SDS011;11074;48.596;9.238;2022-12-29T05:47:28;1.98;;;1.08;;
21822;SDS011;11074;48.596;9.238;2022-12-29T05:49:54;2.85;;;1.00;;
21822;SDS011;11074;48.596;9.238;2022-12-29T05:52:19;1.83;;;1.23;;
21822;SDS011;11074;48.596;9.238;2022-12-29T05:54:45;1.98;;;1.08;;
21822;SDS011;11074;48.596;9.238;2022-12-29T05:57:11;3.13;;;1.15;;
21822;SDS011;11074;48.596;9.238;2022-12-29T05:59:37;3.08;;;1.13;;
21822;SDS011;11074;48.596;9.238;2022-12-29T06:02:03;3.30;;;1.25;;
21822;SDS011;11074;48.596;9.238;2022-12-29T06:04:28;4.00;;;1.10;;
21822;SDS011;11074;48.596;9.238;2022-12-29T06:06:54;2.47;;;1.25;;
21822;SDS011;11074;48.596;9.238;2022-12-29T06:09:19;2.00;;;1.20;;
21822;SDS011;11074;48.596;9.238;2022-12-29T06:11:45;3.53;;;1.30;;
21822;SDS011;11074;48.596;9.238;2022-12-29T06:14:11;3.50;;;1.20;;
21822;SDS011;11074;48.596;9.238;2022-12-29T06:16:36;3.78;;;1.40;;
21822;SDS011;11074;48.596;9.238;2022-12-29T06:19:02;2.80;;;1.30;;
21822;SDS011;11074;48.596;9.238;2022-12-29T06:21:28;4.63;;;1.63;;
21822;SDS011;11074;48.596;9.238;2022-12-29T06:23:53;3.20;;;1.52;;
21822;SDS011;11074;48.596;9.238;2022-12-29T06:26:19;4.15;;;1.95;;
21822;SDS011;11074;48.596;9.238;2022-12-29T06:28:45;4.25;;;1.63;;
21822;SDS011;11074;48.596;9.238;2022-12-29T06:31:10;2.88;;;1.25;;
21822;SDS011;11074;48.596;9.238;2022-12-29T06:33:37;1.73;;;1.13;;
21822;SDS011;11074;48.596;9.238;2022-12-29T06:36:03;4.55;;;1.48;;
21822;SDS011;11074;48.596;9.238;2022-12-29T06:38:29;2.45;;;1.30;;
21822;SDS011;11074;48.596;9.238;2022-12-29T06:40:55;3.42;;;1.40;;
21822;SDS011;11074;48.596;9.238;2022-12-29T06:43:20;2.70;;;1.05;;
21822;SDS011;11074;48.596;9.238;2022-12-29T06:45:46;7.05;;;2.33;;
21822;SDS011;11074;48.596;9.238;2022-12-29T06:48:12;5.95;;;2.28;;
21822;SDS011;11074;48.596;9.238;2022-12-29T06:50:37;21.55;;;10.45;;
21822;SDS011;11074;48.596;9.238;2022-12-29T06:53:03;14.30;;;8.35;;
21822;SDS011;11074;48.596;9.238;2022-12-29T06:55:29;24.83;;;15.77;;
21822;SDS011;11074;48.596;9.238;2022-12-29T06:57:55;22.40;;;14.00;;
21822;SDS011;11074;48.596;9.238;2022-12-29T07:00:25;7.97;;;4.85;;
21822;SDS011;11074;48.596;9.238;2022-12-29T07:02:51;5.28;;;3.60;;
21822;SDS011;11074;48.596;9.238;2022-12-29T07:05:19;6.15;;;3.38;;
21822;SDS011;11074;48.596;9.238;2022-12-29T07:07:44;3.78;;;2.40;;
21822;SDS011;11074;48.596;9.238;2022-12-29T07:10:10;3.85;;;1.90;;
21822;SDS011;11074;48.596;9.238;2022-12-29T07:12:36;4.53;;;3.00;;
21822;SDS011;11074;48.596;9.238;2022-12-29T07:15:02;4.45;;;2.90;;
21822;SDS011;11074;48.596;9.238;2022-12-29T07:17:28;3.92;;;3.50;;
21822;SDS011;11074;48.596;9.238;2022-12-29T07:19:54;4.85;;;3.17;;
21822;SDS011;11074;48.596;9.238;2022-12-29T07:22:19;4.20;;;2.58;;
21822;SDS011;11074;48.596;9.238;2022-12-29T07:24:45;4.53;;;1.90;;
21822;SDS011;11074;48.596;9.238;2022-12-29T07:27:11;5.95;;;2.00;;
21822;SDS011;11074;48.596;9.238;2022-12-29T07:29:37;4.47;;;2.28;;
21822;SDS011;11074;48.596;9.238;2022-12-29T07:32:03;6.78;;;4.78;;
21822;SDS011;11074;48.596;9.238;2022-12-29T07:34:29;9.25;;;5.25;;
21822;SDS011;11074;48.596;9.238;2022-12-29T07:36:55;7.03;;;5.85;;
21822;SDS011;11074;48.596;9.238;2022-12-29T07:39:20;6.28;;;4.38;;
21822;SDS011;11074;48.596;9.238;2022-12-29T07:41:46;6.55;;;4.55;;
21822;SDS011;11074;48.596;9.238;2022-12-29T07:44:12;5.88;;;3.65;;
21822;SDS011;11074;48.596;9.238;2022-12-29T07:46:38;6.15;;;3.47;;
21822;SDS011;11074;48.596;9.238;2022-12-29T07:49:03;4.45;;;2.50;;
21822;SDS011;11074;48.596;9.238;2022-12-29T07:51:29;5.53;;;3.78;;
21822;SDS011;11074;48.596;9.238;2022-12-29T07:53:54;7.43;;;5.22;;
21822;SDS011;11074;48.596;9.238;2022-12-29T07:56:20;7.70;;;4.70;;
21822;SDS011;11074;48.596;9.238;2022-12-29T08:01:14;6.07;;;3.97;;
21822;SDS011;11074;48.596;9.238;2022-12-29T08:03:40;4.90;;;3.22;;
21822;SDS011;11074;48.596;9.238;2022-12-29T08:06:08;6.78;;;3.00;;
21822;SDS011;11074;48.596;9.238;2022-12-29T08:08:35;5.47;;;2.85;;
21822;SDS011;11074;48.596;9.238;2022-12-29T08:11:01;4.63;;;2.72;;
21822;SDS011;11074;48.596;9.238;2022-12-29T08:13:27;7.13;;;3.10;;
21822;SDS011;11074;48.596;9.238;2022-12-29T08:15:52;3.72;;;2.15;;
21822;SDS011;11074;48.596;9.238;2022-12-29T08:18:18;6.18;;;2.80;;
21822;SDS011;11074;48.596;9.238;2022-12-29T08:20:44;6.22;;;2.95;;
21822;SDS011;11074;48.596;9.238;2022-12-29T08:23:09;3.58;;;2.60;;
21822;SDS011;11074;48.596;9.238;2022-12-29T08:25:35;4.00;;;2.65;;
21822;SDS011;11074;48.596;9.238;2022-12-29T08:28:04;3.67;;;2.65;;
21822;SDS011;11074;48.596;9.238;2022-12-29T08:30:32;5.13;;;3.10;;
21822;SDS011;11074;48.596;9.238;2022-12-29T08:32:58;2.92;;;1.70;;
21822;SDS011;11074;48.596;9.238;2022-12-29T08:35:24;3.28;;;1.88;;
21822;SDS011;11074;48.596;9.238;2022-12-29T08:37:49;3.50;;;2.10;;
21822;SDS011;11074;48.596;9.238;2022-12-29T08:40:15;3.92;;;1.88;;
21822;SDS011;11074;48.596;9.238;2022-12-29T08:42:41;3.78;;;2.10;;
21822;SDS011;11074;48.596;9.238;2022-12-29T08:45:07;5.35;;;2.25;;
21822;SDS011;11074;48.596;9.238;2022-12-29T08:47:36;5.15;;;1.83;;
21822;SDS011;11074;48.596;9.238;2022-12-29T08:50:02;5.03;;;2.10;;
21822;SDS011;11074;48.596;9.238;2022-12-29T08:52:28;5.32;;;2.10;;
21822;SDS011;11074;48.596;9.238;2022-12-29T08:54:53;3.38;;;2.03;;
21822;SDS011;11074;48.596;9.238;2022-12-29T08:57:19;10.68;;;5.55;;
21822;SDS011;11074;48.596;9.238;2022-12-29T08:59:45;5.28;;;3.40;;
21822;SDS011;11074;48.596;9.238;2022-12-29T09:02:10;4.70;;;2.25;;
21822;SDS011;11074;48.596;9.238;2022-12-29T09:04:36;5.25;;;1.95;;
21822;SDS011;11074;48.596;9.238;2022-12-29T09:07:02;3.55;;;1.80;;
21822;SDS011;11074;48.596;9.238;2022-12-29T09:09:28;4.13;;;2.10;;
21822;SDS011;11074;48.596;9.238;2022-12-29T09:11:54;2.45;;;1.60;;
21822;SDS011;11074;48.596;9.238;2022-12-29T09:14:19;3.03;;;1.67;;
21822;SDS011;11074;48.596;9.238;2022-12-29T09:16:46;3.80;;;1.80;;
21822;SDS011;11074;48.596;9.238;2022-12-29T09:19:30;3.42;;;1.40;;
21822;SDS011;11074;48.596;9.238;2022-12-29T09:21:56;4.15;;;1.27;;
21822;SDS011;11074;48.596;9.238;2022-12-29T09:24:22;4.07;;;1.27;;
21822;SDS011;11074;48.596;9.238;2022-12-29T09:26:47;6.65;;;1.50;;
21822;SDS011;11074;48.596;9.238;2022-12-29T09:29:13;4.95;;;1.55;;
21822;SDS011;11074;48.596;9.238;2022-12-29T09:31:39;3.55;;;1.70;;
21822;SDS011;11074;48.596;9.238;2022-12-29T09:34:04;2.70;;;1.58;;
21822;SDS011;11074;48.596;9.238;2022-12-29T09:36:30;3.60;;;1.30;;
21822;SDS011;11074;48.596;9.238;2022-12-29T09:38:55;1.80;;;1.20;;
21822;SDS011;11074;48.596;9.238;2022-12-29T09:41:26;5.03;;;1.25;;
21822;SDS011;11074;48.596;9.238;2022-12-29T09:47:14;2.03;;;1.20;;
21822;SDS011;11074;48.596;9.238;2022-12-29T09:49:44;4.57;;;1.58;;
21822;SDS011;11074;48.596;9.238;2022-12-29T09:55:05;3.25;;;1.33;;
21822;SDS011;11074;48.596;9.238;2022-12-29T09:57:54;3.03;;;1.20;;
21822;SDS011;11074;48.596;9.238;2022-12-29T10:03:51;3.42;;;1.70;;
21822;SDS011;11074;48.596;9.238;2022-12-29T10:15:03;6.07;;;1.40;;
21822;SDS011;11074;48.596;9.238;2022-12-29T10:18:10;2.40;;;1.30;;
21822;SDS011;11074;48.596;9.238;2022-12-29T10:26:03;3.25;;;1.50;;
21822;SDS011;11074;48.596;9.238;2022-12-29T10:28:42;2.72;;;1.35;;
21822;SDS011;11074;48.596;9.238;2022-12-29T10:31:16;4.53;;;1.50;;
21822;SDS011;11074;48.596;9.238;2022-12-29T10:34:12;4.63;;;1.70;;
21822;SDS011;11074;48.596;9.238;2022-12-29T10:36:51;2.70;;;1.40;;
21822;SDS011;11074;48.596;9.238;2022-12-29T10:39:46;3.95;;;1.08;;
21822;SDS011;11074;48.596;9.238;2022-12-29T10:42:27;2.78;;;1.30;;
21822;SDS011;11074;48.596;9.238;2022-12-29T10:45:02;4.55;;;1.30;;
21822;SDS011;11074;48.596;9.238;2022-12-29T10:47:32;2.38;;;1.10;;
21822;SDS011;11074;48.596;9.238;2022-12-29T10:50:07;4.22;;;1.23;;
21822;SDS011;11074;48.596;9.238;2022-12-29T10:52:38;2.80;;;1.25;;
21822;SDS011;11074;48.596;9.238;2022-12-29T10:55:12;2.08;;;1.08;;
21822;SDS011;11074;48.596;9.238;2022-12-29T10:57:44;2.83;;;1.02;;
21822;SDS011;11074;48.596;9.238;2022-12-29T11:00:15;2.83;;;1.10;;
21822;SDS011;11074;48.596;9.238;2022-12-29T11:05:25;1.95;;;1.25;;
21822;SDS011;11074;48.596;9.238;2022-12-29T11:08:10;2.80;;;1.38;;
21822;SDS011;11074;48.596;9.238;2022-12-29T11:10:41;3.25;;;1.02;;
21822;SDS011;11074;48.596;9.238;2022-12-29T11:13:19;1.52;;;1.13;;
21822;SDS011;11074;48.596;9.238;2022-12-29T11:15:52;2.00;;;1.20;;
21822;SDS011;11074;48.596;9.238;2022-12-29T11:20:57;5.38;;;2.75;;
21822;SDS011;11074;48.596;9.238;2022-12-29T11:28:45;3.28;;;1.30;;
21822;SDS011;11074;48.596;9.238;2022-12-29T11:31:29;3.58;;;1.27;;
21822;SDS011;11074;48.596;9.238;2022-12-29T11:33:55;3.75;;;1.52;;
21822;SDS011;11074;48.596;9.238;2022-12-29T11:36:22;1.83;;;1.20;;
21822;SDS011;11074;48.596;9.238;2022-12-29T11:38:50;3.05;;;1.20;;
21822;SDS011;11074;48.596;9.238;2022-12-29T11:41:23;4.07;;;1.40;;
21822;SDS011;11074;48.596;9.238;2022-12-29T11:43:53;3.88;;;1.45;;
21822;SDS011;11074;48.596;9.238;2022-12-29T11:51:31;2.30;;;1.23;;
21822;SDS011;11074;48.596;9.238;2022-12-29T11:54:21;3.40;;;1.50;;
21822;SDS011;11074;48.596;9.238;2022-12-29T11:56:52;2.47;;;1.55;;
21822;SDS011;11074;48.596;9.238;2022-12-29T12:02:03;2.08;;;1.40;;
21822;SDS011;11074;48.596;9.238;2022-12-29T12:04:49;2.75;;;1.15;;
21822;SDS011;11074;48.596;9.238;2022-12-29T12:07:27;3.80;;;1.25;;
21822;SDS011;11074;48.596;9.238;2022-12-29T12:10:17;2.78;;;1.25;;
21822;SDS011;11074;48.596;9.238;2022-12-29T12:12:53;4.68;;;1.55;;
21822;SDS011;11074;48.596;9.238;2022-12-29T12:15:43;2.97;;;1.33;;
21822;SDS011;11074;48.596;9.238;2022-12-29T12:18:32;3.92;;;1.73;;
21822;SDS011;11074;48.596;9.238;2022-12-29T12:21:13;4.50;;;1.83;;
21822;SDS011;11074;48.596;9.238;2022-12-29T12:23:58;4.88;;;1.92;;
21822;SDS011;11074;48.596;9.238;2022-12-29T12:27:01;2.38;;;1.30;;
21822;SDS011;11074;48.596;9.238;2022-12-29T12:29:45;1.95;;;1.30;;
21822;SDS011;11074;48.596;9.238;2022-12-29T12:35:33;3.45;;;1.52;;
21822;SDS011;11074;48.596;9.238;2022-12-29T12:38:41;5.25;;;1.83;;
21822;SDS011;11074;48.596;9.238;2022-12-29T12:44:11;3.97;;;1.40;;
21822;SDS011;11074;48.596;9.238;2022-12-29T13:27:34;6.28;;;2.53;;
21822;SDS011;11074;48.596;9.238;2022-12-29T13:30:19;7.35;;;4.75;;
21822;SDS011;11074;48.596;9.238;2022-12-29T13:38:36;4.50;;;2.47;;
21822;SDS011;11074;48.596;9.238;2022-12-29T13:41:08;3.90;;;2.63;;
21822;SDS011;11074;48.596;9.238;2022-12-29T13:43:46;5.03;;;2.28;;
21822;SDS011;11074;48.596;9.238;2022-12-29T13:46:18;6.25;;;3.30;;
21822;SDS011;11074;48.596;9.238;2022-12-29T13:48:59;5.53;;;2.60;;
21822;SDS011;11074;48.596;9.238;2022-12-29T13:51:33;4.38;;;2.35;;
21822;SDS011;11074;48.596;9.238;2022-12-29T13:59:25;6.85;;;3.70;;
21822;SDS011;11074;48.596;9.238;2022-12-29T14:02:24;4.97;;;3.47;;
21822;SDS011;11074;48.596;9.238;2022-12-29T14:07:46;6.13;;;3.40;;
21822;SDS011;11074;48.596;9.238;2022-12-29T14:10:28;5.93;;;2.88;;
21822;SDS011;11074;48.596;9.238;2022-12-29T14:13:03;4.20;;;2.90;;
21822;SDS011;11074;48.596;9.238;2022-12-29T14:15:49;5.00;;;2.55;;
21822;SDS011;11074;48.596;9.238;2022-12-29T14:18:27;5.03;;;2.65;;
21822;SDS011;11074;48.596;9.238;2022-12-29T14:31:03;3.42;;;2.05;;
21822;SDS011;11074;48.596;9.238;2022-12-29T14:33:38;6.63;;;2.22;;
21822;SDS011;11074;48.596;9.238;2022-12-29T14:36:20;3.53;;;2.30;;
21822;SDS011;11074;48.596;9.238;2022-12-29T14:38:58;4.35;;;2.80;;
21822;SDS011;11074;48.596;9.238;2022-12-29T14:41:26;5.28;;;2.50;;
21822;SDS011;11074;48.596;9.238;2022-12-29T14:44:01;5.68;;;3.17;;
21822;SDS011;11074;48.596;9.238;2022-12-29T14:49:20;9.20;;;5.63;;
21822;SDS011;11074;48.596;9.238;2022-12-29T14:51:55;6.68;;;4.57;;
21822;SDS011;11074;48.596;9.238;2022-12-29T14:54:41;10.18;;;6.35;;
21822;SDS011;11074;48.596;9.238;2022-12-29T14:57:29;9.20;;;6.10;;
21822;SDS011;11074;48.596;9.238;2022-12-29T15:00:06;11.00;;;6.35;;
21822;SDS011;11074;48.596;9.238;2022-12-29T15:03:34;11.68;;;5.88;;
21822;SDS011;11074;48.596;9.238;2022-12-29T15:05:51;6.82;;;4.30;;
21822;SDS011;11074;48.596;9.238;2022-12-29T15:13:49;4.40;;;2.90;;
21822;SDS011;11074;48.596;9.238;2022-12-29T15:16:22;4.30;;;2.65;;
21822;SDS011;11074;48.596;9.238;2022-12-29T15:18:53;6.15;;;2.85;;
21822;SDS011;11074;48.596;9.238;2022-12-29T15:21:27;3.55;;;2.20;;
21822;SDS011;11074;48.596;9.238;2022-12-29T15:23:57;20.88;;;12.90;;
21822;SDS011;11074;48.596;9.238;2022-12-29T15:26:23;15.93;;;9.30;;
21822;SDS011;11074;48.596;9.238;2022-12-29T15:29:04;11.82;;;7.60;;
21822;SDS011;11074;48.596;9.238;2022-12-29T15:31:30;10.68;;;6.65;;
21822;SDS011;11074;48.596;9.238;2022-12-29T15:34:02;8.68;;;4.00;;
21822;SDS011;11074;48.596;9.238;2022-12-29T15:36:37;8.15;;;5.25;;
21822;SDS011;11074;48.596;9.238;2022-12-29T15:39:18;10.43;;;5.70;;
21822;SDS011;11074;48.596;9.238;2022-12-29T15:45:11;16.52;;;11.52;;
21822;SDS011;11074;48.596;9.238;2022-12-29T15:47:39;17.85;;;12.32;;
21822;SDS011;11074;48.596;9.238;2022-12-29T15:50:12;29.67;;;18.02;;
21822;SDS011;11074;48.596;9.238;2022-12-29T15:52:51;20.58;;;14.52;;
21822;SDS011;11074;48.596;9.238;2022-12-29T15:55:25;14.90;;;9.27;;
21822;SDS011;11074;48.596;9.238;2022-12-29T15:58:01;5.93;;;3.83;;
21822;SDS011;11074;48.596;9.238;2022-12-29T16:00:34;9.00;;;6.30;;
21822;SDS011;11074;48.596;9.238;2022-12-29T16:03:04;11.20;;;5.80;;
21822;SDS011;11074;48.596;9.238;2022-12-29T16:05:39;4.75;;;3.00;;
21822;SDS011;11074;48.596;9.238;2022-12-29T16:08:21;8.45;;;3.70;;
21822;SDS011;11074;48.596;9.238;2022-12-29T16:11:26;7.75;;;4.07;;
21822;SDS011;11074;48.596;9.238;2022-12-29T16:14:06;6.15;;;4.47;;
21822;SDS011;11074;48.596;9.238;2022-12-29T16:16:46;7.38;;;4.65;;
21822;SDS011;11074;48.596;9.238;2022-12-29T16:22:10;13.48;;;7.47;;
21822;SDS011;11074;48.596;9.238;2022-12-29T16:25:02;12.93;;;7.55;;
21822;SDS011;11074;48.596;9.238;2022-12-29T16:27:40;11.98;;;5.45;;
21822;SDS011;11074;48.596;9.238;2022-12-29T16:30:19;10.75;;;4.97;;
21822;SDS011;11074;48.596;9.238;2022-12-29T16:32:55;9.88;;;4.75;;
21822;SDS011;11074;48.596;9.238;2022-12-29T16:35:25;7.13;;;4.50;;
21822;SDS011;11074;48.596;9.238;2022-12-29T16:38:14;8.68;;;4.30;;
21822;SDS011;11074;48.596;9.238;2022-12-29T16:40:50;8.27;;;5.53;;
21822;SDS011;11074;48.596;9.238;2022-12-29T16:43:31;8.00;;;5.43;;
21822;SDS011;11074;48.596;9.238;2022-12-29T16:48:29;13.30;;;8.40;;
21822;SDS011;11074;48.596;9.238;2022-12-29T16:51:12;9.43;;;6.10;;
21822;SDS011;11074;48.596;9.238;2022-12-29T16:53:41;14.52;;;7.82;;
21822;SDS011;11074;48.596;9.238;2022-12-29T16:56:20;7.43;;;4.65;;
21822;SDS011;11074;48.596;9.238;2022-12-29T16:58:52;7.32;;;4.50;;
21822;SDS011;11074;48.596;9.238;2022-12-29T17:01:30;6.45;;;4.10;;
21822;SDS011;11074;48.596;9.238;2022-12-29T17:04:04;5.60;;;3.25;;
21822;SDS011;11074;48.596;9.238;2022-12-29T17:06:35;4.15;;;2.80;;
21822;SDS011;11074;48.596;9.238;2022-12-29T17:09:01;4.80;;;3.17;;
21822;SDS011;11074;48.596;9.238;2022-12-29T17:11:33;16.38;;;8.88;;
21822;SDS011;11074;48.596;9.238;2022-12-29T17:17:29;18.25;;;10.88;;
21822;SDS011;11074;48.596;9.238;2022-12-29T17:20:17;23.33;;;14.50;;
21822;SDS011;11074;48.596;9.238;2022-12-29T17:22:50;43.72;;;23.27;;
21822;SDS011;11074;48.596;9.238;2022-12-29T17:25:19;35.17;;;18.40;;
21822;SDS011;11074;48.596;9.238;2022-12-29T17:30:52;72.45;;;31.50;;
21822;SDS011;11074;48.596;9.238;2022-12-29T17:33:23;36.67;;;18.10;;
21822;SDS011;11074;48.596;9.238;2022-12-29T17:35:48;26.67;;;13.10;;
21822;SDS011;11074;48.596;9.238;2022-12-29T17:38:18;10.30;;;5.72;;
21822;SDS011;11074;48.596;9.238;2022-12-29T17:40:56;12.77;;;6.60;;
21822;SDS011;11074;48.596;9.238;2022-12-29T17:43:23;7.30;;;4.30;;
21822;SDS011;11074;48.596;9.238;2022-12-29T17:45:51;8.20;;;4.45;;
21822;SDS011;11074;48.596;9.238;2022-12-29T17:48:20;6.47;;;4.18;;
21822;SDS011;11074;48.596;9.238;2022-12-29T17:50:47;5.32;;;3.30;;
21822;SDS011;11074;48.596;9.238;2022-12-29T17:53:19;5.57;;;3.33;;
21822;SDS011;11074;48.596;9.238;2022-12-29T17:55:48;5.63;;;3.50;;
21822;SDS011;11074;48.596;9.238;2022-12-29T17:58:15;6.15;;;3.83;;
21822;SDS011;11074;48.596;9.238;2022-12-29T18:00:42;5.20;;;3.50;;
21822;SDS011;11074;48.596;9.238;2022-12-29T18:03:13;6.28;;;4.28;;
21822;SDS011;11074;48.596;9.238;2022-12-29T18:05:41;6.88;;;4.13;;
21822;SDS011;11074;48.596;9.238;2022-12-29T18:08:08;8.77;;;5.72;;
21822;SDS011;11074;48.596;9.238;2022-12-29T18:10:38;6.45;;;4.63;;